sensor_id;sensor_type;location;lat;lon;timestamp;P1;durP1;ratioP1;P2;durP2;ratioP2
66575;SDS011;53428;47.686;16.584;2022-12-29T00:02:49;27.92;;;12.65;;
66575;SDS011;53428;47.686;16.584;2022-12-29T00:07:48;22.42;;;10.43;;
66575;SDS011;53428;47.686;16.584;2022-12-29T00:12:47;23.90;;;9.82;;
66575;SDS011;53428;47.686;16.584;2022-12-29T00:18:06;27.83;;;13.40;;
66575;SDS011;53428;47.686;16.584;2022-12-29T00:23:07;24.02;;;11.32;;
66575;SDS011;53428;47.686;16.584;2022-12-29T00:28:26;30.30;;;13.30;;
66575;SDS011;53428;47.686;16.584;2022-12-29T00:33:44;24.30;;;12.55;;
66575;SDS011;53428;47.686;16.584;2022-12-29T00:39:03;38.55;;;18.23;;
66575;SDS011;53428;47.686;16.584;2022-12-29T00:44:25;35.72;;;15.25;;
66575;SDS011;53428;47.686;16.584;2022-12-29T00:49:24;27.45;;;13.13;;
66575;SDS011;53428;47.686;16.584;2022-12-29T00:54:30;24.20;;;13.15;;
66575;SDS011;53428;47.686;16.584;2022-12-29T01:04:34;31.88;;;15.13;;
66575;SDS011;53428;47.686;16.584;2022-12-29T01:09:34;27.45;;;14.10;;
66575;SDS011;53428;47.686;16.584;2022-12-29T01:14:52;25.27;;;14.35;;
66575;SDS011;53428;47.686;16.584;2022-12-29T01:19:51;27.48;;;13.93;;
66575;SDS011;53428;47.686;16.584;2022-12-29T01:24:50;27.13;;;12.88;;
66575;SDS011;53428;47.686;16.584;2022-12-29T01:29:49;27.58;;;13.70;;
66575;SDS011;53428;47.686;16.584;2022-12-29T01:34:49;27.08;;;14.23;;
66575;SDS011;53428;47.686;16.584;2022-12-29T01:39:48;33.22;;;11.82;;
66575;SDS011;53428;47.686;16.584;2022-12-29T01:44:55;24.95;;;12.52;;
66575;SDS011;53428;47.686;16.584;2022-12-29T01:49:57;32.70;;;13.25;;
66575;SDS011;53428;47.686;16.584;2022-12-29T01:55:02;22.77;;;12.07;;
66575;SDS011;53428;47.686;16.584;2022-12-29T02:00:05;36.40;;;13.38;;
66575;SDS011;53428;47.686;16.584;2022-12-29T02:05:09;28.95;;;13.13;;
66575;SDS011;53428;47.686;16.584;2022-12-29T02:10:13;24.58;;;12.00;;
66575;SDS011;53428;47.686;16.584;2022-12-29T02:15:12;33.20;;;14.23;;
66575;SDS011;53428;47.686;16.584;2022-12-29T02:36:32;57.67;;;20.85;;
66575;SDS011;53428;47.686;16.584;2022-12-29T02:41:58;58.15;;;20.38;;
66575;SDS011;53428;47.686;16.584;2022-12-29T02:47:08;148.40;;;44.38;;
66575;SDS011;53428;47.686;16.584;2022-12-29T02:52:18;53.20;;;18.70;;
66575;SDS011;53428;47.686;16.584;2022-12-29T03:23:44;30.23;;;12.60;;
66575;SDS011;53428;47.686;16.584;2022-12-29T03:28:51;24.05;;;12.50;;
66575;SDS011;53428;47.686;16.584;2022-12-29T03:33:52;21.25;;;12.52;;
66575;SDS011;53428;47.686;16.584;2022-12-29T03:38:59;25.83;;;11.63;;
66575;SDS011;53428;47.686;16.584;2022-12-29T03:44:01;28.27;;;12.80;;
66575;SDS011;53428;47.686;16.584;2022-12-29T03:49:00;30.77;;;14.30;;
66575;SDS011;53428;47.686;16.584;2022-12-29T03:54:00;32.85;;;13.38;;
66575;SDS011;53428;47.686;16.584;2022-12-29T03:58:59;27.23;;;14.70;;
66575;SDS011;53428;47.686;16.584;2022-12-29T04:03:59;42.03;;;15.85;;
66575;SDS011;53428;47.686;16.584;2022-12-29T04:08:58;35.58;;;16.98;;
66575;SDS011;53428;47.686;16.584;2022-12-29T04:13:58;31.65;;;15.85;;
66575;SDS011;53428;47.686;16.584;2022-12-29T04:18:58;31.80;;;15.70;;
66575;SDS011;53428;47.686;16.584;2022-12-29T04:23:57;30.75;;;16.13;;
66575;SDS011;53428;47.686;16.584;2022-12-29T04:28:57;33.90;;;15.77;;
66575;SDS011;53428;47.686;16.584;2022-12-29T04:33:56;38.30;;;17.10;;
66575;SDS011;53428;47.686;16.584;2022-12-29T04:38:56;33.53;;;16.40;;
66575;SDS011;53428;47.686;16.584;2022-12-29T04:43:56;57.88;;;20.85;;
66575;SDS011;53428;47.686;16.584;2022-12-29T04:48:55;79.50;;;29.50;;
66575;SDS011;53428;47.686;16.584;2022-12-29T04:53:54;106.60;;;37.30;;
66575;SDS011;53428;47.686;16.584;2022-12-29T04:58:54;62.60;;;26.50;;
66575;SDS011;53428;47.686;16.584;2022-12-29T05:03:53;86.43;;;32.60;;
66575;SDS011;53428;47.686;16.584;2022-12-29T05:08:52;74.65;;;30.77;;
66575;SDS011;53428;47.686;16.584;2022-12-29T05:13:51;70.53;;;28.02;;
66575;SDS011;53428;47.686;16.584;2022-12-29T05:18:51;53.95;;;23.45;;
66575;SDS011;53428;47.686;16.584;2022-12-29T05:23:50;45.50;;;19.48;;
66575;SDS011;53428;47.686;16.584;2022-12-29T05:28:49;64.03;;;24.60;;
66575;SDS011;53428;47.686;16.584;2022-12-29T05:33:49;61.47;;;26.10;;
66575;SDS011;53428;47.686;16.584;2022-12-29T05:38:48;46.60;;;19.98;;
66575;SDS011;53428;47.686;16.584;2022-12-29T05:43:47;41.97;;;19.63;;
66575;SDS011;53428;47.686;16.584;2022-12-29T05:48:46;46.88;;;20.40;;
66575;SDS011;53428;47.686;16.584;2022-12-29T05:53:46;52.65;;;17.67;;
66575;SDS011;53428;47.686;16.584;2022-12-29T05:58:45;42.67;;;17.67;;
66575;SDS011;53428;47.686;16.584;2022-12-29T06:03:45;80.63;;;18.85;;
66575;SDS011;53428;47.686;16.584;2022-12-29T06:08:44;90.45;;;20.38;;
66575;SDS011;53428;47.686;16.584;2022-12-29T06:13:43;67.65;;;21.05;;
66575;SDS011;53428;47.686;16.584;2022-12-29T06:18:43;118.43;;;25.40;;
66575;SDS011;53428;47.686;16.584;2022-12-29T06:23:42;137.18;;;26.77;;
66575;SDS011;53428;47.686;16.584;2022-12-29T06:28:41;80.38;;;29.27;;
66575;SDS011;53428;47.686;16.584;2022-12-29T06:33:41;110.05;;;25.98;;
66575;SDS011;53428;47.686;16.584;2022-12-29T06:38:40;133.35;;;25.15;;
66575;SDS011;53428;47.686;16.584;2022-12-29T06:43:39;106.65;;;22.27;;
66575;SDS011;53428;47.686;16.584;2022-12-29T06:48:39;140.65;;;25.20;;
66575;SDS011;53428;47.686;16.584;2022-12-29T06:53:40;78.90;;;22.42;;
66575;SDS011;53428;47.686;16.584;2022-12-29T06:58:40;83.10;;;22.00;;
66575;SDS011;53428;47.686;16.584;2022-12-29T07:03:41;77.03;;;21.77;;
66575;SDS011;53428;47.686;16.584;2022-12-29T07:08:41;118.72;;;24.50;;
66575;SDS011;53428;47.686;16.584;2022-12-29T07:13:40;71.25;;;20.42;;
66575;SDS011;53428;47.686;16.584;2022-12-29T07:18:40;116.07;;;26.70;;
66575;SDS011;53428;47.686;16.584;2022-12-29T07:23:39;70.18;;;22.25;;
66575;SDS011;53428;47.686;16.584;2022-12-29T07:28:38;102.47;;;23.05;;
66575;SDS011;53428;47.686;16.584;2022-12-29T07:33:37;129.23;;;28.27;;
66575;SDS011;53428;47.686;16.584;2022-12-29T07:38:36;45.47;;;17.65;;
66575;SDS011;53428;47.686;16.584;2022-12-29T07:43:36;53.45;;;18.15;;
66575;SDS011;53428;47.686;16.584;2022-12-29T07:48:35;49.47;;;17.40;;
66575;SDS011;53428;47.686;16.584;2022-12-29T07:53:35;52.88;;;18.55;;
66575;SDS011;53428;47.686;16.584;2022-12-29T07:58:34;58.10;;;17.85;;
66575;SDS011;53428;47.686;16.584;2022-12-29T08:03:33;48.92;;;16.48;;
66575;SDS011;53428;47.686;16.584;2022-12-29T08:08:32;72.60;;;18.00;;
66575;SDS011;53428;47.686;16.584;2022-12-29T08:13:32;43.13;;;17.73;;
66575;SDS011;53428;47.686;16.584;2022-12-29T08:18:31;75.65;;;18.15;;
66575;SDS011;53428;47.686;16.584;2022-12-29T08:23:31;37.80;;;16.80;;
66575;SDS011;53428;47.686;16.584;2022-12-29T08:28:31;46.95;;;16.23;;
66575;SDS011;53428;47.686;16.584;2022-12-29T08:33:31;69.78;;;16.42;;
66575;SDS011;53428;47.686;16.584;2022-12-29T08:38:30;70.97;;;16.15;;
66575;SDS011;53428;47.686;16.584;2022-12-29T08:43:30;74.43;;;16.52;;
66575;SDS011;53428;47.686;16.584;2022-12-29T08:48:30;36.53;;;15.13;;
66575;SDS011;53428;47.686;16.584;2022-12-29T08:53:29;33.67;;;14.82;;
66575;SDS011;53428;47.686;16.584;2022-12-29T08:58:29;41.70;;;14.20;;
66575;SDS011;53428;47.686;16.584;2022-12-29T09:03:28;29.05;;;14.32;;
66575;SDS011;53428;47.686;16.584;2022-12-29T09:08:27;39.15;;;13.27;;
66575;SDS011;53428;47.686;16.584;2022-12-29T09:13:27;32.30;;;15.32;;
66575;SDS011;53428;47.686;16.584;2022-12-29T09:18:26;43.33;;;17.13;;
66575;SDS011;53428;47.686;16.584;2022-12-29T09:23:25;43.58;;;16.92;;
66575;SDS011;53428;47.686;16.584;2022-12-29T09:28:25;46.92;;;19.60;;
66575;SDS011;53428;47.686;16.584;2022-12-29T09:33:25;46.55;;;19.67;;
66575;SDS011;53428;47.686;16.584;2022-12-29T09:38:25;50.92;;;19.13;;
66575;SDS011;53428;47.686;16.584;2022-12-29T09:54:00;52.10;;;21.10;;
66575;SDS011;53428;47.686;16.584;2022-12-29T09:59:16;43.47;;;19.42;;
66575;SDS011;53428;47.686;16.584;2022-12-29T10:04:19;37.83;;;17.17;;
66575;SDS011;53428;47.686;16.584;2022-12-29T10:09:37;61.30;;;23.38;;
66575;SDS011;53428;47.686;16.584;2022-12-29T10:25:37;45.03;;;18.67;;
66575;SDS011;53428;47.686;16.584;2022-12-29T10:30:37;39.95;;;17.27;;
66575;SDS011;53428;47.686;16.584;2022-12-29T10:35:38;40.67;;;17.88;;
66575;SDS011;53428;47.686;16.584;2022-12-29T10:40:46;45.70;;;16.98;;
66575;SDS011;53428;47.686;16.584;2022-12-29T10:45:56;44.97;;;17.95;;
66575;SDS011;53428;47.686;16.584;2022-12-29T10:51:00;41.08;;;19.33;;
66575;SDS011;53428;47.686;16.584;2022-12-29T10:56:02;53.60;;;22.45;;
66575;SDS011;53428;47.686;16.584;2022-12-29T11:01:08;76.75;;;28.42;;
66575;SDS011;53428;47.686;16.584;2022-12-29T11:11:27;56.65;;;24.55;;
66575;SDS011;53428;47.686;16.584;2022-12-29T11:16:33;55.80;;;22.75;;
66575;SDS011;53428;47.686;16.584;2022-12-29T11:21:35;58.03;;;24.67;;
66575;SDS011;53428;47.686;16.584;2022-12-29T11:26:40;52.38;;;23.45;;
66575;SDS011;53428;47.686;16.584;2022-12-29T11:31:44;59.95;;;23.90;;
66575;SDS011;53428;47.686;16.584;2022-12-29T11:36:44;65.40;;;26.92;;
66575;SDS011;53428;47.686;16.584;2022-12-29T11:41:45;57.08;;;26.88;;
66575;SDS011;53428;47.686;16.584;2022-12-29T11:46:52;61.72;;;27.05;;
66575;SDS011;53428;47.686;16.584;2022-12-29T11:51:53;51.60;;;23.73;;
66575;SDS011;53428;47.686;16.584;2022-12-29T11:56:56;46.90;;;22.77;;
66575;SDS011;53428;47.686;16.584;2022-12-29T12:01:58;46.03;;;22.98;;
66575;SDS011;53428;47.686;16.584;2022-12-29T12:07:08;60.88;;;26.13;;
66575;SDS011;53428;47.686;16.584;2022-12-29T12:12:58;62.90;;;24.67;;
66575;SDS011;53428;47.686;16.584;2022-12-29T12:18:00;62.08;;;24.60;;
66575;SDS011;53428;47.686;16.584;2022-12-29T12:23:22;49.13;;;21.88;;
66575;SDS011;53428;47.686;16.584;2022-12-29T12:49:23;47.90;;;21.50;;
66575;SDS011;53428;47.686;16.584;2022-12-29T13:00:13;154.77;;;58.28;;
66575;SDS011;53428;47.686;16.584;2022-12-29T13:15:51;92.03;;;33.85;;
66575;SDS011;53428;47.686;16.584;2022-12-29T13:21:33;71.05;;;25.55;;
66575;SDS011;53428;47.686;16.584;2022-12-29T13:26:42;64.43;;;24.88;;
66575;SDS011;53428;47.686;16.584;2022-12-29T13:37:23;58.28;;;24.48;;
66575;SDS011;53428;47.686;16.584;2022-12-29T13:42:27;64.40;;;23.77;;
66575;SDS011;53428;47.686;16.584;2022-12-29T13:47:28;65.45;;;25.38;;
66575;SDS011;53428;47.686;16.584;2022-12-29T14:08:35;72.82;;;29.42;;
66575;SDS011;53428;47.686;16.584;2022-12-29T14:13:36;66.80;;;28.75;;
66575;SDS011;53428;47.686;16.584;2022-12-29T14:18:42;80.97;;;25.70;;
66575;SDS011;53428;47.686;16.584;2022-12-29T14:23:44;69.55;;;31.08;;
66575;SDS011;53428;47.686;16.584;2022-12-29T14:28:48;75.18;;;28.63;;
66575;SDS011;53428;47.686;16.584;2022-12-29T14:34:14;82.35;;;32.10;;
66575;SDS011;53428;47.686;16.584;2022-12-29T14:44:51;74.13;;;28.98;;
66575;SDS011;53428;47.686;16.584;2022-12-29T14:49:54;82.28;;;32.08;;
66575;SDS011;53428;47.686;16.584;2022-12-29T15:00:02;72.55;;;27.30;;
66575;SDS011;53428;47.686;16.584;2022-12-29T15:05:05;118.53;;;36.53;;
66575;SDS011;53428;47.686;16.584;2022-12-29T15:10:18;120.40;;;32.55;;
66575;SDS011;53428;47.686;16.584;2022-12-29T15:15:21;98.28;;;33.08;;
66575;SDS011;53428;47.686;16.584;2022-12-29T15:20:26;98.65;;;31.95;;
66575;SDS011;53428;47.686;16.584;2022-12-29T15:25:28;93.78;;;32.08;;
66575;SDS011;53428;47.686;16.584;2022-12-29T15:30:27;142.98;;;37.10;;
66575;SDS011;53428;47.686;16.584;2022-12-29T15:40:34;127.10;;;39.80;;
66575;SDS011;53428;47.686;16.584;2022-12-29T15:45:33;160.30;;;42.90;;
66575;SDS011;53428;47.686;16.584;2022-12-29T15:50:35;91.43;;;33.60;;
66575;SDS011;53428;47.686;16.584;2022-12-29T15:55:37;118.68;;;36.67;;
66575;SDS011;53428;47.686;16.584;2022-12-29T16:00:38;194.30;;;47.63;;
66575;SDS011;53428;47.686;16.584;2022-12-29T16:05:38;135.35;;;43.00;;
66575;SDS011;53428;47.686;16.584;2022-12-29T16:10:41;110.25;;;37.38;;
66575;SDS011;53428;47.686;16.584;2022-12-29T16:15:44;110.22;;;33.70;;
66575;SDS011;53428;47.686;16.584;2022-12-29T16:20:45;104.32;;;34.55;;
66575;SDS011;53428;47.686;16.584;2022-12-29T16:25:45;148.52;;;34.95;;
66575;SDS011;53428;47.686;16.584;2022-12-29T16:30:45;106.05;;;33.30;;
66575;SDS011;53428;47.686;16.584;2022-12-29T16:35:46;142.95;;;41.10;;
66575;SDS011;53428;47.686;16.584;2022-12-29T16:40:53;132.95;;;43.10;;
66575;SDS011;53428;47.686;16.584;2022-12-29T16:46:17;120.80;;;41.85;;
66575;SDS011;53428;47.686;16.584;2022-12-29T16:51:28;167.27;;;50.50;;
66575;SDS011;53428;47.686;16.584;2022-12-29T16:56:31;127.72;;;45.38;;
66575;SDS011;53428;47.686;16.584;2022-12-29T17:01:37;105.68;;;40.38;;
66575;SDS011;53428;47.686;16.584;2022-12-29T17:06:41;145.18;;;48.80;;
66575;SDS011;53428;47.686;16.584;2022-12-29T17:11:40;102.75;;;38.75;;
66575;SDS011;53428;47.686;16.584;2022-12-29T17:16:56;84.68;;;31.35;;
66575;SDS011;53428;47.686;16.584;2022-12-29T17:21:56;116.13;;;39.05;;
66575;SDS011;53428;47.686;16.584;2022-12-29T17:26:57;128.27;;;43.20;;
66575;SDS011;53428;47.686;16.584;2022-12-29T17:31:59;112.93;;;43.53;;
66575;SDS011;53428;47.686;16.584;2022-12-29T17:37:00;92.20;;;35.63;;
66575;SDS011;53428;47.686;16.584;2022-12-29T17:42:00;87.32;;;33.42;;
66575;SDS011;53428;47.686;16.584;2022-12-29T17:46:59;85.18;;;32.03;;
66575;SDS011;53428;47.686;16.584;2022-12-29T17:51:59;72.03;;;25.33;;
66575;SDS011;53428;47.686;16.584;2022-12-29T17:56:58;63.53;;;24.63;;
66575;SDS011;53428;47.686;16.584;2022-12-29T18:01:57;75.35;;;31.10;;
66575;SDS011;53428;47.686;16.584;2022-12-29T18:06:57;84.07;;;32.50;;
66575;SDS011;53428;47.686;16.584;2022-12-29T18:11:56;106.75;;;43.17;;
66575;SDS011;53428;47.686;16.584;2022-12-29T18:16:56;80.78;;;36.78;;
66575;SDS011;53428;47.686;16.584;2022-12-29T18:21:55;76.65;;;30.92;;
66575;SDS011;53428;47.686;16.584;2022-12-29T18:26:54;71.88;;;30.95;;
66575;SDS011;53428;47.686;16.584;2022-12-29T18:31:54;62.88;;;27.92;;
66575;SDS011;53428;47.686;16.584;2022-12-29T18:36:53;62.60;;;27.27;;
66575;SDS011;53428;47.686;16.584;2022-12-29T18:41:53;63.65;;;29.45;;
66575;SDS011;53428;47.686;16.584;2022-12-29T18:46:52;74.72;;;32.35;;
66575;SDS011;53428;47.686;16.584;2022-12-29T18:51:52;61.20;;;27.45;;
66575;SDS011;53428;47.686;16.584;2022-12-29T18:56:52;62.67;;;28.00;;
66575;SDS011;53428;47.686;16.584;2022-12-29T19:01:52;67.10;;;27.67;;
66575;SDS011;53428;47.686;16.584;2022-12-29T19:06:51;71.95;;;30.88;;
66575;SDS011;53428;47.686;16.584;2022-12-29T19:11:51;79.00;;;35.72;;
66575;SDS011;53428;47.686;16.584;2022-12-29T19:16:50;70.97;;;33.03;;
66575;SDS011;53428;47.686;16.584;2022-12-29T19:21:50;64.68;;;30.60;;
66575;SDS011;53428;47.686;16.584;2022-12-29T19:26:54;81.13;;;30.95;;
66575;SDS011;53428;47.686;16.584;2022-12-29T19:31:53;66.05;;;29.88;;
66575;SDS011;53428;47.686;16.584;2022-12-29T19:36:53;87.13;;;37.00;;
66575;SDS011;53428;47.686;16.584;2022-12-29T19:41:52;78.28;;;34.00;;
66575;SDS011;53428;47.686;16.584;2022-12-29T19:46:52;112.90;;;46.42;;
66575;SDS011;53428;47.686;16.584;2022-12-29T19:51:52;99.25;;;40.17;;
66575;SDS011;53428;47.686;16.584;2022-12-29T19:56:51;109.75;;;45.22;;
66575;SDS011;53428;47.686;16.584;2022-12-29T20:01:51;92.53;;;39.35;;
66575;SDS011;53428;47.686;16.584;2022-12-29T20:06:50;71.32;;;34.13;;
66575;SDS011;53428;47.686;16.584;2022-12-29T20:11:50;79.70;;;35.22;;
66575;SDS011;53428;47.686;16.584;2022-12-29T20:16:49;67.35;;;31.70;;
66575;SDS011;53428;47.686;16.584;2022-12-29T20:21:49;73.95;;;29.65;;
66575;SDS011;53428;47.686;16.584;2022-12-29T20:26:49;68.50;;;32.03;;
66575;SDS011;53428;47.686;16.584;2022-12-29T20:31:48;81.72;;;32.95;;
66575;SDS011;53428;47.686;16.584;2022-12-29T20:36:49;80.75;;;36.70;;
66575;SDS011;53428;47.686;16.584;2022-12-29T20:41:48;85.68;;;34.97;;
66575;SDS011;53428;47.686;16.584;2022-12-29T20:46:48;105.82;;;40.70;;
66575;SDS011;53428;47.686;16.584;2022-12-29T20:51:47;109.10;;;42.90;;
66575;SDS011;53428;47.686;16.584;2022-12-29T20:56:47;106.15;;;43.67;;
66575;SDS011;53428;47.686;16.584;2022-12-29T21:01:47;123.53;;;48.42;;
66575;SDS011;53428;47.686;16.584;2022-12-29T21:06:47;96.72;;;40.55;;
66575;SDS011;53428;47.686;16.584;2022-12-29T21:11:46;103.60;;;42.22;;
66575;SDS011;53428;47.686;16.584;2022-12-29T21:16:46;76.70;;;33.65;;
66575;SDS011;53428;47.686;16.584;2022-12-29T21:21:45;64.20;;;32.22;;
66575;SDS011;53428;47.686;16.584;2022-12-29T21:26:45;70.30;;;32.20;;
66575;SDS011;53428;47.686;16.584;2022-12-29T21:31:45;74.88;;;32.90;;
66575;SDS011;53428;47.686;16.584;2022-12-29T21:36:44;72.53;;;33.35;;
66575;SDS011;53428;47.686;16.584;2022-12-29T21:41:43;82.47;;;34.95;;
66575;SDS011;53428;47.686;16.584;2022-12-29T21:46:43;77.93;;;33.42;;
66575;SDS011;53428;47.686;16.584;2022-12-29T21:51:44;90.10;;;35.15;;
66575;SDS011;53428;47.686;16.584;2022-12-29T21:56:50;93.13;;;38.10;;
66575;SDS011;53428;47.686;16.584;2022-12-29T22:01:49;89.18;;;36.05;;
66575;SDS011;53428;47.686;16.584;2022-12-29T22:07:08;124.70;;;49.28;;
66575;SDS011;53428;47.686;16.584;2022-12-29T22:12:28;108.30;;;43.50;;
66575;SDS011;53428;47.686;16.584;2022-12-29T22:17:47;136.77;;;46.05;;
66575;SDS011;53428;47.686;16.584;2022-12-29T22:22:48;130.88;;;43.75;;
66575;SDS011;53428;47.686;16.584;2022-12-29T22:27:48;148.45;;;44.05;;
66575;SDS011;53428;47.686;16.584;2022-12-29T22:32:47;119.80;;;42.13;;
66575;SDS011;53428;47.686;16.584;2022-12-29T22:37:47;196.63;;;46.72;;
66575;SDS011;53428;47.686;16.584;2022-12-29T22:42:46;106.45;;;39.72;;
66575;SDS011;53428;47.686;16.584;2022-12-29T22:47:46;144.90;;;45.28;;
66575;SDS011;53428;47.686;16.584;2022-12-29T22:52:45;110.43;;;42.45;;
66575;SDS011;53428;47.686;16.584;2022-12-29T22:57:44;110.57;;;41.20;;
66575;SDS011;53428;47.686;16.584;2022-12-29T23:02:44;98.10;;;41.20;;
66575;SDS011;53428;47.686;16.584;2022-12-29T23:07:43;121.05;;;43.40;;
66575;SDS011;53428;47.686;16.584;2022-12-29T23:12:42;209.82;;;46.72;;
66575;SDS011;53428;47.686;16.584;2022-12-29T23:17:41;158.85;;;50.72;;
66575;SDS011;53428;47.686;16.584;2022-12-29T23:22:41;155.02;;;46.38;;
66575;SDS011;53428;47.686;16.584;2022-12-29T23:27:40;105.53;;;45.50;;
66575;SDS011;53428;47.686;16.584;2022-12-29T23:32:39;158.27;;;45.10;;
66575;SDS011;53428;47.686;16.584;2022-12-29T23:37:38;174.48;;;47.80;;
66575;SDS011;53428;47.686;16.584;2022-12-29T23:42:38;161.43;;;45.70;;
66575;SDS011;53428;47.686;16.584;2022-12-29T23:47:37;357.05;;;54.20;;
66575;SDS011;53428;47.686;16.584;2022-12-29T23:52:37;259.35;;;53.55;;
66575;SDS011;53428;47.686;16.584;2022-12-29T23:57:36;141.27;;;45.97;;
